Time,TemperatureF,DewpointF,PressureIn,WindDirection,WindDirectionDegrees,WindSpeedMPH,WindSpeedGustMPH,Humidity,HourlyPrecipIn,Conditions,Clouds,dailyrainin,SoftwareType,DateUTC
2013-02-16 00:00:00,46.9,45.3,29.97,West,270,0.0,0.0,94,0.00, ,,-99.99,VWS V12.07,2013-02-16 05:00:00,
2013-02-16 00:01:00,46.8,45.4,29.97,West,270,0.0,0.0,95,0.00, ,,-99.99,VWS V12.07,2013-02-16 05:01:00,
2013-02-16 00:06:00,46.3,45.3,29.97,West,270,0.0,0.0,96,0.00, ,,-99.99,VWS V12.07,2013-02-16 05:06:00,
2013-02-16 00:11:00,45.7,45.0,29.97,West,270,0.0,0.0,97,0.00, ,,-99.99,VWS V12.07,2013-02-16 05:11:00,
2013-02-16 00:16:00,46.0,45.4,29.97,West,270,0.0,0.0,98,0.00, ,,-99.99,VWS V12.07,2013-02-16 05:16:00,
2013-02-16 00:21:00,45.4,45.0,29.97,West,270,0.0,0.0,98,0.00, ,,-99.99,VWS V12.07,2013-02-16 05:21:00,
2013-02-16 00:26:00,46.2,45.8,29.97,West,270,0.0,0.0,98,0.00, ,,-99.99,VWS V12.07,2013-02-16 05:26:00,
2013-02-16 00:31:00,46.1,45.7,29.97,West,270,0.0,0.0,98,0.00, ,,-99.99,VWS V12.07,2013-02-16 05:31:00,
2013-02-16 00:36:00,45.8,45.4,29.97,West,270,0.0,0.0,98,0.00, ,,-99.99,VWS V12.07,2013-02-16 05:36:00,
2013-02-16 00:41:00,45.5,45.0,29.97,West,270,0.0,0.0,98,0.00, ,,-99.99,VWS V12.07,2013-02-16 05:41:00,
2013-02-16 00:46:00,45.4,44.8,29.97,West,270,0.0,0.0,98,0.00, ,,-99.99,VWS V12.07,2013-02-16 05:46:00,
2013-02-16 00:51:00,45.7,45.0,29.96,West,270,0.0,0.0,97,0.00, ,,-99.99,VWS V12.07,2013-02-16 05:51:00,
2013-02-16 00:56:00,45.6,44.8,29.96,West,270,0.0,0.0,97,0.00, ,,-99.99,VWS V12.07,2013-02-16 05:56:00,
2013-02-16 00:58:00,45.3,44.4,29.96,West,270,0.0,0.0,97,0.00, ,,-99.99,VWS V12.07,2013-02-16 05:58:00,
2013-02-16 01:03:00,45.6,44.7,29.96,West,270,0.0,0.0,97,0.00, ,,-99.99,VWS V12.07,2013-02-16 06:03:00,
2013-02-16 01:08:00,45.4,44.5,29.95,West,270,0.0,0.0,96,0.00, ,,-99.99,VWS V12.07,2013-02-16 06:08:00,
2013-02-16 01:13:00,45.3,44.4,29.95,NNW,332,5.2,5.2,97,0.00, ,,-99.99,VWS V12.07,2013-02-16 06:13:00,
2013-02-16 01:18:00,45.0,44.2,29.95,NNW,337,4.5,5.7,97,0.00, ,,-99.99,VWS V12.07,2013-02-16 06:18:00,
2013-02-16 01:23:00,45.4,44.7,29.95,NNW,344,5.4,5.7,97,0.00, ,,-99.99,VWS V12.07,2013-02-16 06:23:00,
2013-02-16 01:28:00,45.6,44.8,29.95,NNW,340,5.2,6.2,97,0.00, ,,-99.99,VWS V12.07,2013-02-16 06:28:00,
2013-02-16 01:33:00,45.1,44.3,29.95,NNW,329,3.4,6.2,97,0.00, ,,-99.99,VWS V12.07,2013-02-16 06:33:00,
2013-02-16 01:38:00,45.3,44.5,29.94,NNW,337,0.0,0.0,97,0.00, ,,-99.99,VWS V12.07,2013-02-16 06:38:00,
2013-02-16 01:43:00,45.9,45.1,29.94,NNW,337,0.0,0.0,97,0.00, ,,-99.99,VWS V12.07,2013-02-16 06:43:00,
2013-02-16 01:48:00,46.2,45.4,29.94,NNW,337,0.0,0.0,97,0.00, ,,-99.99,VWS V12.07,2013-02-16 06:48:00,
2013-02-16 01:53:00,46.0,45.1,29.94,NNW,337,0.0,0.0,97,0.00, ,,-99.99,VWS V12.07,2013-02-16 06:53:00,
2013-02-16 01:58:00,45.9,45.0,29.94,NNW,337,0.0,0.0,97,0.00, ,,-99.99,VWS V12.07,2013-02-16 06:58:00,
2013-02-16 02:03:00,46.3,45.4,29.93,NNW,337,0.0,0.0,97,0.00, ,,-99.99,VWS V12.07,2013-02-16 07:03:00,
2013-02-16 02:08:00,46.0,45.1,29.93,NNW,337,0.0,0.0,96,0.00, ,,-99.99,VWS V12.07,2013-02-16 07:08:00,
2013-02-16 02:13:00,46.4,45.5,29.93,NNW,337,0.0,0.0,97,0.00, ,,-99.99,VWS V12.07,2013-02-16 07:13:00,
2013-02-16 02:18:00,46.2,45.4,29.93,NNW,337,0.0,0.0,97,0.00, ,,-99.99,VWS V12.07,2013-02-16 07:18:00,
2013-02-16 02:23:00,46.1,45.3,29.93,NNW,337,0.0,0.0,97,0.00, ,,-99.99,VWS V12.07,2013-02-16 07:23:00,
2013-02-16 02:28:00,45.8,45.0,29.93,NNW,337,0.0,0.0,97,0.00, ,,-99.99,VWS V12.07,2013-02-16 07:28:00,
2013-02-16 02:33:00,46.0,45.2,29.92,NNW,337,0.0,0.0,97,0.00, ,,-99.99,VWS V12.07,2013-02-16 07:33:00,
2013-02-16 02:38:00,46.3,45.4,29.92,NNW,337,0.0,0.0,97,0.00, ,,-99.99,VWS V12.07,2013-02-16 07:38:00,
2013-02-16 02:43:00,46.3,45.4,29.92,NNW,337,0.0,0.0,97,0.00, ,,-99.99,VWS V12.07,2013-02-16 07:43:00,
2013-02-16 02:48:00,46.0,45.5,29.92,West,270,4.5,7.2,98,0.00, ,,-99.99,VWS V12.07,2013-02-16 07:48:00,
2013-02-16 02:53:00,45.8,45.1,29.92,WNW,292,5.7,7.4,97,0.00, ,,-99.99,VWS V12.07,2013-02-16 07:53:00,
2013-02-16 02:58:00,46.5,45.7,29.92,West,265,5.3,6.2,97,0.00, ,,-99.99,VWS V12.07,2013-02-16 07:58:00,
2013-02-16 03:03:00,47.1,46.3,29.92,West,265,6.1,6.9,97,0.00, ,,-99.99,VWS V12.07,2013-02-16 08:03:00,
2013-02-16 03:08:00,47.5,46.6,29.92,West,270,3.5,6.9,96,0.00, ,,-99.99,VWS V12.07,2013-02-16 08:08:00,
2013-02-16 03:13:00,47.3,46.3,29.92,WNW,292,3.4,6.9,96,0.00, ,,-99.99,VWS V12.07,2013-02-16 08:13:00,
2013-02-16 03:18:00,47.5,46.4,29.92,WNW,296,4.2,4.3,96,0.00, ,,-99.99,VWS V12.07,2013-02-16 08:18:00,
2013-02-16 03:23:00,46.9,45.8,29.92,NW,313,0.0,4.5,96,0.00, ,,-99.99,VWS V12.07,2013-02-16 08:23:00,
2013-02-16 03:28:00,46.6,45.6,29.92,NW,313,0.0,4.5,96,0.00, ,,-99.99,VWS V12.07,2013-02-16 08:28:00,
2013-02-16 03:33:00,46.2,45.4,29.92,NW,313,0.0,4.5,97,0.00, ,,-99.99,VWS V12.07,2013-02-16 08:33:00,
2013-02-16 03:38:00,46.3,45.6,29.92,NW,313,0.0,0.0,97,0.00, ,,-99.99,VWS V12.07,2013-02-16 08:38:00,
2013-02-16 03:43:00,46.1,45.4,29.92,NW,313,0.0,0.0,97,0.00, ,,-99.99,VWS V12.07,2013-02-16 08:43:00,
2013-02-16 03:48:00,45.9,45.2,29.91,NW,313,0.0,0.0,97,0.00, ,,-99.99,VWS V12.07,2013-02-16 08:48:00,
2013-02-16 03:54:00,46.0,45.3,29.91,NW,313,0.0,0.0,97,0.00, ,,-99.99,VWS V12.07,2013-02-16 08:54:00,
2013-02-16 03:59:00,45.6,44.9,29.91,NW,313,0.0,0.0,97,0.00, ,,-99.99,VWS V12.07,2013-02-16 08:59:00,
2013-02-16 04:04:00,45.6,44.8,29.91,NW,313,0.0,0.0,97,0.00, ,,-99.99,VWS V12.07,2013-02-16 09:04:00,
2013-02-16 04:09:00,45.3,44.7,29.92,NW,313,10.1,13.9,98,0.00, ,,-99.99,VWS V12.07,2013-02-16 09:09:00,
2013-02-16 04:14:00,45.1,44.4,29.92,NW,312,9.3,13.9,97,0.00, ,,-99.99,VWS V12.07,2013-02-16 09:14:00,
2013-02-16 04:19:00,44.6,43.5,29.92,WNW,301,13.3,13.6,96,0.00, ,,-99.99,VWS V12.07,2013-02-16 09:19:00,
2013-02-16 04:24:00,44.7,43.4,29.92,NW,309,13.6,16.6,95,0.00, ,,-99.99,VWS V12.07,2013-02-16 09:24:00,
2013-02-16 04:29:00,44.5,43.0,29.92,NW,312,8.8,16.6,94,0.00, ,,-99.99,VWS V12.07,2013-02-16 09:29:00,
2013-02-16 04:34:00,44.5,43.1,29.92,NW,316,9.1,16.6,95,0.00, ,,-99.99,VWS V12.07,2013-02-16 09:34:00,
2013-02-16 04:39:00,44.1,42.7,29.92,NW,320,10.1,13.9,95,0.00, ,,-99.99,VWS V12.07,2013-02-16 09:39:00,
2013-02-16 04:44:00,44.0,42.4,29.91,NW,326,10.7,13.9,94,0.00, ,,-99.99,VWS V12.07,2013-02-16 09:44:00,
2013-02-16 04:49:00,44.3,42.7,29.91,NNW,333,7.8,13.9,94,0.00, ,,-99.99,VWS V12.07,2013-02-16 09:49:00,
2013-02-16 04:54:00,43.9,42.3,29.91,NW,320,7.3,13.9,94,0.00, ,,-99.99,VWS V12.07,2013-02-16 09:54:00,
2013-02-16 04:59:00,43.7,42.2,29.91,NW,316,6.6,9.2,94,0.00, ,,-99.99,VWS V12.07,2013-02-16 09:59:00,
2013-02-16 05:04:00,43.7,42.1,29.90,NW,323,6.0,9.2,94,0.00, ,,-99.99,VWS V12.07,2013-02-16 10:04:00,
2013-02-16 05:09:00,43.9,42.2,29.91,NW,315,7.4,9.6,94,0.00, ,,-99.99,VWS V12.07,2013-02-16 10:09:00,
2013-02-16 05:14:00,43.6,42.0,29.90,NW,319,4.3,10.1,94,0.00, ,,-99.99,VWS V12.07,2013-02-16 10:14:00,
2013-02-16 05:19:00,44.1,42.3,29.90,NW,319,6.1,8.8,93,0.00, ,,-99.99,VWS V12.07,2013-02-16 10:19:00,
2013-02-16 05:24:00,44.4,42.5,29.90,NNW,334,5.7,10.4,93,0.00, ,,-99.99,VWS V12.07,2013-02-16 10:24:00,
2013-02-16 05:29:00,44.0,41.9,29.89,NNW,337,6.2,10.4,92,0.00, ,,-99.99,VWS V12.07,2013-02-16 10:29:00,
2013-02-16 05:34:00,44.2,42.2,29.89,NNW,337,7.3,10.4,93,0.00, ,,-99.99,VWS V12.07,2013-02-16 10:34:00,
2013-02-16 05:39:00,44.4,42.4,29.89,NNW,337,6.1,7.3,93,0.00, ,,-99.99,VWS V12.07,2013-02-16 10:39:00,
2013-02-16 05:44:00,44.8,42.4,29.89,North,357,8.2,11.6,91,0.00, ,,-99.99,VWS V12.07,2013-02-16 10:44:00,
2013-02-16 05:49:00,44.1,41.4,29.89,NNW,344,9.3,12.6,90,0.00, ,,-99.99,VWS V12.07,2013-02-16 10:49:00,
2013-02-16 05:54:00,44.4,41.6,29.88,North,351,10.3,13.1,90,0.00, ,,-99.99,VWS V12.07,2013-02-16 10:54:00,
2013-02-16 05:59:00,44.2,41.8,29.88,NNW,348,7.0,11.1,91,0.00, ,,-99.99,VWS V12.07,2013-02-16 10:59:00,
2013-02-16 06:04:00,44.0,41.9,29.88,NNW,344,8.9,13.2,92,0.00, ,,-99.99,VWS V12.07,2013-02-16 11:04:00,
2013-02-16 06:09:00,43.5,41.7,29.88,NNW,330,9.8,13.2,93,0.00, ,,-99.99,VWS V12.07,2013-02-16 11:09:00,
2013-02-16 06:14:00,43.6,42.0,29.88,NNW,346,7.7,13.2,94,0.00, ,,-99.99,VWS V12.07,2013-02-16 11:14:00,
2013-02-16 06:19:00,43.6,42.2,29.89,NNW,330,8.4,10.3,95,0.00, ,,-99.99,VWS V12.07,2013-02-16 11:19:00,
2013-02-16 06:24:00,42.9,41.5,29.89,NNW,339,8.6,11.5,95,0.00, ,,-99.99,VWS V12.07,2013-02-16 11:24:00,
2013-02-16 06:29:00,43.3,41.8,29.89,North,353,10.7,11.5,94,0.00, ,,-99.99,VWS V12.07,2013-02-16 11:29:00,
2013-02-16 06:34:00,43.7,42.4,29.89,North,358,8.9,13.2,95,0.00, ,,-99.99,VWS V12.07,2013-02-16 11:34:00,
2013-02-16 06:39:00,43.5,42.2,29.89,North,1,8.7,13.8,95,0.00, ,,-99.99,VWS V12.07,2013-02-16 11:39:00,
2013-02-16 06:44:00,43.4,42.0,29.89,North,351,8.6,13.8,95,0.00, ,,-99.99,VWS V12.07,2013-02-16 11:44:00,
2013-02-16 06:49:00,43.5,42.1,29.89,North,2,8.1,15.5,95,0.00, ,,-99.99,VWS V12.07,2013-02-16 11:49:00,
2013-02-16 06:54:00,43.3,41.9,29.89,North,354,7.8,15.5,95,0.00, ,,-99.99,VWS V12.07,2013-02-16 11:54:00,
2013-02-16 06:59:00,43.3,42.1,29.89,North,354,8.2,10.9,96,0.00, ,,-99.99,VWS V12.07,2013-02-16 11:59:00,
2013-02-16 07:04:00,43.0,41.8,29.89,NNE,15,9.6,13.9,95,0.00, ,,-99.99,VWS V12.07,2013-02-16 12:04:00,
2013-02-16 07:09:00,42.7,41.5,29.89,North,1,8.9,14.0,96,0.00, ,,-99.99,VWS V12.07,2013-02-16 12:09:00,
2013-02-16 07:14:00,42.2,41.2,29.89,North,360,8.5,14.0,96,0.00, ,,-99.99,VWS V12.07,2013-02-16 12:14:00,
2013-02-16 07:19:00,42.5,41.7,29.89,North,357,9.5,13.7,97,0.00, ,,-99.99,VWS V12.07,2013-02-16 12:19:00,
2013-02-16 07:24:00,42.8,41.9,29.89,NE,46,11.5,14.1,96,0.00, ,,-99.99,VWS V12.07,2013-02-16 12:24:00,
2013-02-16 07:29:00,42.6,41.7,29.89,North,354,10.9,14.5,96,0.00, ,,-99.99,VWS V12.07,2013-02-16 12:29:00,
2013-02-16 07:34:00,42.6,41.7,29.89,North,8,8.7,14.6,96,0.00, ,,-99.99,VWS V12.07,2013-02-16 12:34:00,
2013-02-16 07:39:00,42.9,41.9,29.89,North,2,9.5,13.7,96,0.00, ,,-99.99,VWS V12.07,2013-02-16 12:39:00,
2013-02-16 07:44:00,42.6,41.7,29.89,North,354,8.8,15.3,96,0.00, ,,-99.99,VWS V12.07,2013-02-16 12:44:00,
2013-02-16 07:49:00,42.9,41.8,29.89,NNW,332,12.6,15.3,96,0.00, ,,-99.99,VWS V12.07,2013-02-16 12:49:00,
2013-02-16 07:54:00,43.2,42.2,29.89,North,351,10.6,15.3,96,0.00, ,,-99.99,VWS V12.07,2013-02-16 12:54:00,
2013-02-16 07:59:00,43.2,42.1,29.89,North,11,11.2,13.9,96,0.00, ,,-99.99,VWS V12.07,2013-02-16 12:59:00,
2013-02-16 08:04:00,43.2,42.2,29.89,NE,36,13.4,16.5,96,0.00, ,,-99.99,VWS V12.07,2013-02-16 13:04:00,
2013-02-16 08:09:00,43.4,42.2,29.89,NNE,17,13.4,16.5,96,0.00, ,,-99.99,VWS V12.07,2013-02-16 13:09:00,
2013-02-16 08:14:00,43.9,42.9,29.89,North,354,12.4,16.5,96,0.00, ,,-99.99,VWS V12.07,2013-02-16 13:14:00,
2013-02-16 08:19:00,43.6,42.5,29.89,North,10,12.8,14.5,96,0.00, ,,-99.99,VWS V12.07,2013-02-16 13:19:00,
2013-02-16 08:24:00,44.5,43.4,29.89,North,2,11.3,15.0,96,0.00, ,,-99.99,VWS V12.07,2013-02-16 13:24:00,
2013-02-16 08:29:00,45.3,44.1,29.89,North,355,9.1,15.0,96,0.00, ,,-99.99,VWS V12.07,2013-02-16 13:29:00,
2013-02-16 08:34:00,45.4,44.2,29.89,NNE,28,10.7,15.4,96,0.00, ,,-99.99,VWS V12.07,2013-02-16 13:34:00,
2013-02-16 08:39:00,45.3,44.0,29.88,North,357,8.0,13.7,95,0.00, ,,-99.99,VWS V12.07,2013-02-16 13:39:00,
2013-02-16 08:44:00,45.7,44.4,29.88,North,7,9.6,18.8,95,0.00, ,,-99.99,VWS V12.07,2013-02-16 13:44:00,
2013-02-16 08:49:00,45.9,44.4,29.88,NNE,29,10.7,18.8,95,0.00, ,,-99.99,VWS V12.07,2013-02-16 13:49:00,
2013-02-16 08:54:00,46.1,44.2,29.87,North,5,8.4,18.8,93,0.00, ,,-99.99,VWS V12.07,2013-02-16 13:54:00,
2013-02-16 08:59:00,47.0,45.0,29.87,NNE,17,10.4,15.2,93,0.00, ,,-99.99,VWS V12.07,2013-02-16 13:59:00,
2013-02-16 09:04:00,47.7,45.4,29.87,North,11,11.3,15.4,92,0.00, ,,-99.99,VWS V12.07,2013-02-16 14:04:00,
2013-02-16 09:09:00,47.4,45.0,29.87,NNE,32,8.7,21.1,91,0.00, ,,-99.99,VWS V12.07,2013-02-16 14:09:00,
2013-02-16 09:14:00,47.7,45.3,29.87,NE,35,7.8,21.1,91,0.00, ,,-99.99,VWS V12.07,2013-02-16 14:14:00,
2013-02-16 09:19:00,47.9,45.7,29.87,North,2,8.8,15.3,92,0.00, ,,-99.99,VWS V12.07,2013-02-16 14:19:00,
2013-02-16 09:25:00,47.5,45.5,29.87,NE,55,9.6,16.5,93,0.00, ,,-99.99,VWS V12.07,2013-02-16 14:25:00,
2013-02-16 09:30:00,47.6,45.6,29.87,NNE,14,12.2,16.7,93,0.00, ,,-99.99,VWS V12.07,2013-02-16 14:30:00,
2013-02-16 09:35:00,47.5,45.5,29.87,NNE,17,15.7,19.9,93,0.00, ,,-99.99,VWS V12.07,2013-02-16 14:35:00,
2013-02-16 09:40:00,47.5,45.5,29.87,NNE,17,18.9,20.4,93,0.00, ,,-99.99,VWS V12.07,2013-02-16 14:40:00,
2013-02-16 09:45:00,47.7,45.8,29.87,North,1,18.3,20.4,93,0.00, ,,-99.99,VWS V12.07,2013-02-16 14:45:00,
2013-02-16 09:50:00,47.7,46.1,29.87,North,355,13.2,20.8,94,0.00, ,,-99.99,VWS V12.07,2013-02-16 14:50:00,
2013-02-16 09:55:00,47.5,45.6,29.87,NNE,17,11.2,20.8,93,0.00, ,,-99.99,VWS V12.07,2013-02-16 14:55:00,
2013-02-16 10:00:00,47.8,46.2,29.87,NNE,29,9.4,19.2,94,0.00, ,,-99.99,VWS V12.07,2013-02-16 15:00:00,
2013-02-16 10:05:00,47.8,45.9,29.87,North,10,14.5,19.2,93,0.00, ,,-99.99,VWS V12.07,2013-02-16 15:05:00,
2013-02-16 10:10:00,47.9,45.5,29.87,North,2,14.4,21.5,92,0.00, ,,-99.99,VWS V12.07,2013-02-16 15:10:00,
2013-02-16 10:15:00,48.8,46.6,29.87,North,350,9.9,21.5,92,0.00, ,,-99.99,VWS V12.07,2013-02-16 15:15:00,
2013-02-16 10:20:00,48.2,45.4,29.87,North,5,13.8,16.0,90,0.00, ,,-99.99,VWS V12.07,2013-02-16 15:20:00,
2013-02-16 10:25:00,48.8,46.3,29.87,NNE,14,13.7,16.2,91,0.00, ,,-99.99,VWS V12.07,2013-02-16 15:25:00,
2013-02-16 10:30:00,48.7,46.1,29.86,East,81,7.2,17.3,91,0.00, ,,-99.99,VWS V12.07,2013-02-16 15:30:00,
2013-02-16 10:35:00,48.8,45.8,29.86,NE,46,8.5,17.3,89,0.00, ,,-99.99,VWS V12.07,2013-02-16 15:35:00,
2013-02-16 10:40:00,49.0,46.1,29.86,NNE,19,5.8,14.3,90,0.00, ,,-99.99,VWS V12.07,2013-02-16 15:40:00,
2013-02-16 10:46:00,49.3,46.0,29.85,NE,35,7.7,16.2,88,0.00, ,,-99.99,VWS V12.07,2013-02-16 15:46:00,
2013-02-16 10:51:00,48.9,45.5,29.85,NNE,24,10.4,16.5,88,0.00, ,,-99.99,VWS V12.07,2013-02-16 15:51:00,
2013-02-16 10:56:00,49.5,46.6,29.85,NNE,33,6.5,17.0,90,0.00, ,,-99.99,VWS V12.07,2013-02-16 15:56:00,
2013-02-16 11:01:00,50.1,46.5,29.85,NE,50,4.7,16.2,87,0.00, ,,-99.99,VWS V12.07,2013-02-16 16:01:00,
2013-02-16 11:06:00,49.6,46.0,29.85,ENE,73,7.8,17.3,87,0.00, ,,-99.99,VWS V12.07,2013-02-16 16:06:00,
2013-02-16 11:11:00,49.6,46.0,29.85,ESE,119,4.2,17.3,87,0.00, ,,-99.99,VWS V12.07,2013-02-16 16:11:00,
2013-02-16 11:16:00,49.7,46.1,29.84,NNW,348,11.6,17.3,87,0.00, ,,-99.99,VWS V12.07,2013-02-16 16:16:00,
2013-02-16 11:21:00,49.6,46.0,29.84,NNE,15,14.7,15.3,87,0.00, ,,-99.99,VWS V12.07,2013-02-16 16:21:00,
2013-02-16 11:26:00,49.7,45.9,29.84,ENE,60,10.7,15.3,87,0.00, ,,-99.99,VWS V12.07,2013-02-16 16:26:00,
2013-02-16 11:31:00,50.3,46.7,29.84,North,8,9.2,15.3,88,0.00, ,,-99.99,VWS V12.07,2013-02-16 16:31:00,
2013-02-16 11:36:00,50.6,46.2,29.84,East,88,7.3,15.3,85,0.00, ,,-99.99,VWS V12.07,2013-02-16 16:36:00,
2013-02-16 11:41:00,51.0,46.7,29.84,NNE,22,8.8,17.7,85,0.00, ,,-99.99,VWS V12.07,2013-02-16 16:41:00,
2013-02-16 11:46:00,50.9,46.7,29.83,North,360,6.1,17.7,85,0.00, ,,-99.99,VWS V12.07,2013-02-16 16:46:00,
2013-02-16 11:51:00,50.7,46.0,29.83,North,353,10.4,17.7,84,0.00, ,,-99.99,VWS V12.07,2013-02-16 16:51:00,
2013-02-16 11:56:00,51.0,47.2,29.83,NNE,29,10.6,17.7,87,0.00, ,,-99.99,VWS V12.07,2013-02-16 16:56:00,
2013-02-16 12:01:00,51.1,47.1,29.83,NNW,333,0.0,15.2,86,0.00, ,,-99.99,VWS V12.07,2013-02-16 17:01:00,
2013-02-16 12:06:00,50.4,45.7,29.82,NNE,15,11.3,16.8,84,0.00, ,,-99.99,VWS V12.07,2013-02-16 17:06:00,
2013-02-16 12:11:00,50.8,46.5,29.83,North,2,9.6,16.8,85,0.00, ,,-99.99,VWS V12.07,2013-02-16 17:11:00,
2013-02-16 12:16:00,50.6,46.6,29.82,North,11,11.9,16.9,86,0.00, ,,-99.99,VWS V12.07,2013-02-16 17:16:00,
2013-02-16 12:21:00,50.5,46.3,29.82,North,360,11.1,16.8,86,0.00, ,,-99.99,VWS V12.07,2013-02-16 17:21:00,
2013-02-16 12:26:00,50.3,46.0,29.82,North,350,13.2,17.2,85,0.00, ,,-99.99,VWS V12.07,2013-02-16 17:26:00,
2013-02-16 12:31:00,49.7,45.5,29.81,NNW,341,13.4,17.2,85,0.00, ,,-99.99,VWS V12.07,2013-02-16 17:31:00,
2013-02-16 12:36:00,49.9,45.3,29.81,North,355,12.7,17.6,84,0.00, ,,-99.99,VWS V12.07,2013-02-16 17:36:00,
2013-02-16 12:41:00,50.1,46.0,29.81,North,353,10.7,17.1,86,0.00, ,,-99.99,VWS V12.07,2013-02-16 17:41:00,
2013-02-16 12:46:00,50.4,46.2,29.80,NNE,14,9.9,18.0,86,0.00, ,,-99.99,VWS V12.07,2013-02-16 17:46:00,
2013-02-16 12:51:00,49.6,45.2,29.80,NNW,332,10.0,18.0,85,0.00, ,,-99.99,VWS V12.07,2013-02-16 17:51:00,
2013-02-16 12:56:00,49.9,45.0,29.79,North,4,10.2,18.0,83,0.00, ,,-99.99,VWS V12.07,2013-02-16 17:56:00,
2013-02-16 13:01:00,49.7,45.1,29.79,North,355,12.2,17.8,84,0.00, ,,-99.99,VWS V12.07,2013-02-16 18:01:00,
2013-02-16 13:06:00,50.0,45.5,29.78,North,354,16.6,17.8,84,0.00, ,,-99.99,VWS V12.07,2013-02-16 18:06:00,
2013-02-16 13:11:00,50.1,44.8,29.78,NNE,17,11.9,17.8,82,0.00, ,,-99.99,VWS V12.07,2013-02-16 18:11:00,
2013-02-16 13:16:00,50.5,45.2,29.77,NNE,24,9.9,17.8,82,0.00, ,,-99.99,VWS V12.07,2013-02-16 18:16:00,
2013-02-16 13:21:00,50.4,45.1,29.77,NNE,26,13.7,19.3,82,0.00, ,,-99.99,VWS V12.07,2013-02-16 18:21:00,
2013-02-16 13:26:00,50.1,45.0,29.77,North,360,16.3,19.3,82,0.00, ,,-99.99,VWS V12.07,2013-02-16 18:26:00,
2013-02-16 13:31:00,50.1,45.1,29.77,NNW,341,9.5,19.3,83,0.00, ,,-99.99,VWS V12.07,2013-02-16 18:31:00,
2013-02-16 13:36:00,50.2,45.6,29.76,North,358,17.2,19.3,84,0.00, ,,-99.99,VWS V12.07,2013-02-16 18:36:00,
2013-02-16 13:41:00,50.0,45.6,29.76,North,360,12.2,17.5,85,0.00, ,,-99.99,VWS V12.07,2013-02-16 18:41:00,
2013-02-16 13:46:00,49.3,44.7,29.76,WNW,294,14.2,17.5,84,0.00, ,,-99.99,VWS V12.07,2013-02-16 18:46:00,
2013-02-16 13:51:00,49.6,45.1,29.76,NNW,329,12.1,17.5,84,0.00, ,,-99.99,VWS V12.07,2013-02-16 18:51:00,
2013-02-16 13:56:00,49.5,45.0,29.75,North,4,9.0,17.5,84,0.00, ,,-99.99,VWS V12.07,2013-02-16 18:56:00,
2013-02-16 14:01:00,50.1,46.0,29.75,NW,312,3.0,16.5,86,0.00, ,,-99.99,VWS V12.07,2013-02-16 19:01:00,
2013-02-16 14:06:00,49.7,45.3,29.74,North,353,10.6,16.5,85,0.00, ,,-99.99,VWS V12.07,2013-02-16 19:06:00,
2013-02-16 14:11:00,49.3,44.7,29.74,NNW,343,12.1,16.5,84,0.00, ,,-99.99,VWS V12.07,2013-02-16 19:11:00,
2013-02-16 14:16:00,49.4,45.0,29.74,North,358,10.7,17.5,85,0.00, ,,-99.99,VWS V12.07,2013-02-16 19:16:00,
2013-02-16 14:21:00,49.5,44.8,29.73,North,351,10.0,16.0,84,0.00, ,,-99.99,VWS V12.07,2013-02-16 19:21:00,
2013-02-16 14:27:00,49.2,44.4,29.73,North,5,12.6,16.0,83,0.00, ,,-99.99,VWS V12.07,2013-02-16 19:27:00,
2013-02-16 14:32:00,49.4,44.8,29.73,North,355,10.1,16.5,84,0.00, ,,-99.99,VWS V12.07,2013-02-16 19:32:00,
2013-02-16 14:37:00,49.5,44.8,29.73,NNW,341,10.4,10.6,84,0.00, ,,-99.99,VWS V12.07,2013-02-16 19:37:00,
2013-02-16 14:42:00,49.9,45.1,29.72,NW,318,6.3,14.2,83,0.00, ,,-99.99,VWS V12.07,2013-02-16 19:42:00,
2013-02-16 14:47:00,50.2,45.2,29.72,NNE,17,9.8,14.9,83,0.00, ,,-99.99,VWS V12.07,2013-02-16 19:47:00,
2013-02-16 14:52:00,50.6,45.3,29.72,North,7,8.9,14.9,82,0.00, ,,-99.99,VWS V12.07,2013-02-16 19:52:00,
2013-02-16 14:57:00,49.9,44.6,29.72,North,5,9.3,10.4,82,0.00, ,,-99.99,VWS V12.07,2013-02-16 19:57:00,
2013-02-16 15:02:00,50.1,44.8,29.71,North,2,8.8,15.7,82,0.00, ,,-99.99,VWS V12.07,2013-02-16 20:02:00,
2013-02-16 15:07:00,50.3,44.9,29.71,North,5,10.7,15.7,82,0.00, ,,-99.99,VWS V12.07,2013-02-16 20:07:00,
2013-02-16 15:12:00,50.7,45.2,29.71,NNW,347,7.2,15.7,81,0.00, ,,-99.99,VWS V12.07,2013-02-16 20:12:00,
2013-02-16 15:17:00,50.0,45.0,29.71,NNE,14,9.4,9.4,83,0.00, ,,-99.99,VWS V12.07,2013-02-16 20:17:00,
2013-02-16 15:22:00,50.5,44.9,29.71,North,351,9.4,12.5,81,0.00, ,,-99.99,VWS V12.07,2013-02-16 20:22:00,
2013-02-16 15:27:00,50.6,45.0,29.70,NW,326,12.6,18.4,81,0.00, ,,-99.99,VWS V12.07,2013-02-16 20:27:00,
2013-02-16 15:32:00,49.9,43.9,29.70,North,11,13.3,18.4,80,0.00, ,,-99.99,VWS V12.07,2013-02-16 20:32:00,
2013-02-16 15:37:00,50.1,44.7,29.70,North,1,11.2,13.2,82,0.00, ,,-99.99,VWS V12.07,2013-02-16 20:37:00,
2013-02-16 15:42:00,49.8,44.1,29.69,NNE,24,12.2,14.9,81,0.00, ,,-99.99,VWS V12.07,2013-02-16 20:42:00,
2013-02-16 15:47:00,49.6,43.7,29.69,North,5,10.8,19.2,80,0.00, ,,-99.99,VWS V12.07,2013-02-16 20:47:00,
2013-02-16 15:52:00,49.1,43.6,29.69,NE,38,9.6,19.2,81,0.00, ,,-99.99,VWS V12.07,2013-02-16 20:52:00,
2013-02-16 15:57:00,49.3,43.9,29.70,NNE,26,12.0,13.3,82,0.00, ,,-99.99,VWS V12.07,2013-02-16 20:57:00,
2013-02-16 16:02:00,49.3,44.4,29.70,North,4,9.7,14.0,83,0.00, ,,-99.99,VWS V12.07,2013-02-16 21:02:00,
2013-02-16 16:07:00,48.8,43.8,29.70,North,358,14.7,18.3,83,0.00, ,,-99.99,VWS V12.07,2013-02-16 21:07:00,
2013-02-16 16:12:00,49.0,43.6,29.70,North,5,11.1,18.3,81,0.00, ,,-99.99,VWS V12.07,2013-02-16 21:12:00,
2013-02-16 16:17:00,48.6,43.5,29.69,North,355,15.8,17.9,83,0.00, ,,-99.99,VWS V12.07,2013-02-16 21:17:00,
2013-02-16 16:22:00,49.0,43.6,29.69,North,351,8.1,18.5,82,0.00, ,,-99.99,VWS V12.07,2013-02-16 21:22:00,
2013-02-16 16:27:00,49.2,43.8,29.69,North,358,8.6,18.5,81,0.00, ,,-99.99,VWS V12.07,2013-02-16 21:27:00,
2013-02-16 16:32:00,49.0,44.0,29.69,North,8,10.7,18.5,83,0.00, ,,-99.99,VWS V12.07,2013-02-16 21:32:00,
2013-02-16 16:37:00,48.6,43.8,29.69,North,353,9.1,9.3,83,0.00, ,,-99.99,VWS V12.07,2013-02-16 21:37:00,
2013-02-16 16:42:00,49.4,44.7,29.69,North,354,11.2,14.1,84,0.00, ,,-99.99,VWS V12.07,2013-02-16 21:42:00,
2013-02-16 16:47:00,48.3,43.8,29.69,NNW,339,11.1,18.2,84,0.00, ,,-99.99,VWS V12.07,2013-02-16 21:47:00,
2013-02-16 16:52:00,48.3,44.2,29.69,North,351,13.2,20.5,86,0.00, ,,-99.99,VWS V12.07,2013-02-16 21:52:00,
2013-02-16 16:57:00,48.6,44.8,29.69,North,350,12.9,13.2,87,0.00, ,,-99.99,VWS V12.07,2013-02-16 21:57:00,
2013-02-16 17:02:00,48.0,44.8,29.69,NNW,347,13.7,24.1,88,0.00, ,,-99.99,VWS V12.07,2013-02-16 22:02:00,
2013-02-16 17:07:00,47.0,45.2,29.69,NNW,330,17.7,24.1,94,0.00, ,,-99.99,VWS V12.07,2013-02-16 22:07:00,
2013-02-16 17:12:00,45.0,44.3,29.69,NNW,327,19.8,27.8,97,0.00, ,,-99.99,VWS V12.07,2013-02-16 22:12:00,
2013-02-16 17:17:00,44.6,44.2,29.69,NNW,332,16.6,16.9,98,0.00, ,,-99.99,VWS V12.07,2013-02-16 22:17:00,
2013-02-16 17:22:00,44.3,43.5,29.71,WNW,298,27.8,29.8,97,0.00, ,,-99.99,VWS V12.07,2013-02-16 22:22:00,
2013-02-16 17:27:00,42.4,41.8,29.72,NW,315,23.1,33.8,98,0.01, ,,-99.99,VWS V12.07,2013-02-16 22:27:00,
2013-02-16 17:32:00,41.6,41.3,29.72,NNW,329,25.0,36.3,99,0.01, ,,-99.99,VWS V12.07,2013-02-16 22:32:00,
2013-02-16 17:37:00,41.5,41.5,29.74,NW,323,17.5,20.8,100,0.01, ,,-99.99,VWS V12.07,2013-02-16 22:37:00,
2013-02-16 17:42:00,40.3,40.2,29.74,NW,306,18.8,44.7,99,0.02, ,,-99.99,VWS V12.07,2013-02-16 22:42:00,
2013-02-16 17:47:00,39.9,39.9,29.74,NW,310,27.7,44.7,100,0.02, ,,-99.99,VWS V12.07,2013-02-16 22:47:00,
2013-02-16 17:52:00,38.6,38.5,29.74,NW,320,25.2,44.7,100,0.02, ,,-99.99,VWS V12.07,2013-02-16 22:52:00,
2013-02-16 17:57:00,38.4,38.4,29.74,NW,312,31.3,31.3,100,0.02, ,,-99.99,VWS V12.07,2013-02-16 22:57:00,
2013-02-16 18:02:00,38.0,38.0,29.74,NW,320,19.2,37.6,100,0.02, ,,-99.99,VWS V12.07,2013-02-16 23:02:00,
2013-02-16 18:07:00,37.4,37.4,29.75,NW,319,28.2,37.6,100,0.02, ,,-99.99,VWS V12.07,2013-02-16 23:07:00,
2013-02-16 18:12:00,37.4,37.4,29.74,NNW,332,36.4,37.7,100,0.02, ,,-99.99,VWS V12.07,2013-02-16 23:12:00,
2013-02-16 18:17:00,38.3,38.3,29.74,WNW,298,20.5,26.9,100,0.02, ,,-99.99,VWS V12.07,2013-02-16 23:17:00,
2013-02-16 18:22:00,38.1,38.1,29.74,NNW,332,29.3,38.3,100,0.02, ,,-99.99,VWS V12.07,2013-02-16 23:22:00,
2013-02-16 18:27:00,37.4,37.4,29.74,NNW,339,28.1,40.0,100,0.02, ,,-99.99,VWS V12.07,2013-02-16 23:27:00,
2013-02-16 18:32:00,37.2,37.2,29.74,NNW,347,30.3,40.0,100,0.02, ,,-99.99,VWS V12.07,2013-02-16 23:32:00,
2013-02-16 18:37:00,37.8,37.8,29.75,NW,318,14.5,23.1,100,0.01, ,,-99.99,VWS V12.07,2013-02-16 23:37:00,
2013-02-16 18:42:00,37.4,37.4,29.75,NW,323,20.4,33.4,100,0.01, ,,-99.99,VWS V12.07,2013-02-16 23:42:00,
2013-02-16 18:47:00,37.3,37.3,29.76,NNW,333,24.0,33.4,100,0.01, ,,-99.99,VWS V12.07,2013-02-16 23:47:00,
2013-02-16 18:52:00,37.8,37.8,29.76,NW,318,18.7,33.4,100,0.01, ,,-99.99,VWS V12.07,2013-02-16 23:52:00,
2013-02-16 18:57:00,37.4,37.4,29.77,NW,316,21.6,23.1,100,0.01, ,,-99.99,VWS V12.07,2013-02-16 23:57:00,
2013-02-16 19:02:00,37.9,37.9,29.78,NNW,327,14.0,26.2,100,0.01, ,,-99.99,VWS V12.07,2013-02-17 00:02:00,
2013-02-16 19:07:00,37.1,37.1,29.77,NW,325,21.3,30.0,100,0.01, ,,-99.99,VWS V12.07,2013-02-17 00:07:00,
2013-02-16 19:12:00,37.0,37.0,29.76,NNW,332,25.0,35.0,100,0.01, ,,-99.99,VWS V12.07,2013-02-17 00:12:00,
2013-02-16 19:17:00,37.2,37.1,29.77,NNW,337,18.8,21.3,100,0.01, ,,-99.99,VWS V12.07,2013-02-17 00:17:00,
2013-02-16 19:22:00,36.9,36.9,29.78,NW,325,21.9,28.8,100,0.01, ,,-99.99,VWS V12.07,2013-02-17 00:22:00,
2013-02-16 19:27:00,36.6,36.6,29.79,NW,305,25.3,28.8,100,0.01, ,,-99.99,VWS V12.07,2013-02-17 00:27:00,
2013-02-16 19:32:00,36.3,36.3,29.79,NW,306,17.0,28.8,100,0.01, ,,-99.99,VWS V12.07,2013-02-17 00:32:00,
2013-02-16 19:37:00,36.4,36.4,29.79,NW,318,19.4,19.6,100,0.01, ,,-99.99,VWS V12.07,2013-02-17 00:37:00,
2013-02-16 19:42:00,36.5,36.5,29.78,NNW,334,12.9,24.3,100,0.01, ,,-99.99,VWS V12.07,2013-02-17 00:42:00,
2013-02-16 19:47:00,36.7,36.7,29.78,NW,319,12.7,24.5,100,0.01, ,,-99.99,VWS V12.07,2013-02-17 00:47:00,
2013-02-16 19:52:00,36.6,36.6,29.79,NW,305,14.7,24.5,100,0.01, ,,-99.99,VWS V12.07,2013-02-17 00:52:00,
2013-02-16 19:57:00,36.1,36.1,29.79,NW,319,11.9,18.1,100,0.00, ,,-99.99,VWS V12.07,2013-02-17 00:57:00,
2013-02-16 20:03:00,36.3,36.3,29.79,NNW,329,17.3,24.9,100,0.00, ,,-99.99,VWS V12.07,2013-02-17 01:03:00,
2013-02-16 20:08:00,36.1,36.1,29.79,NNW,337,16.8,24.9,100,0.00, ,,-99.99,VWS V12.07,2013-02-17 01:08:00,
2013-02-16 20:13:00,35.7,35.7,29.78,NNW,333,19.3,24.9,100,0.01, ,,-99.99,VWS V12.07,2013-02-17 01:13:00,
2013-02-16 20:18:00,35.4,35.4,29.77,NNW,344,13.8,21.5,100,0.01, ,,-99.99,VWS V12.07,2013-02-17 01:18:00,
2013-02-16 20:23:00,35.6,35.6,29.76,North,354,14.4,21.9,100,0.01, ,,-99.99,VWS V12.07,2013-02-17 01:23:00,
2013-02-16 20:28:00,35.9,35.9,29.76,North,353,15.2,23.9,100,0.01, ,,-99.99,VWS V12.07,2013-02-17 01:28:00,
2013-02-16 20:33:00,35.7,35.7,29.75,NNW,334,17.1,25.9,100,0.01, ,,-99.99,VWS V12.07,2013-02-17 01:33:00,
2013-02-16 20:38:00,35.7,35.7,29.76,North,351,15.3,18.6,100,0.01, ,,-99.99,VWS V12.07,2013-02-17 01:38:00,
2013-02-16 20:43:00,35.8,35.8,29.76,NW,325,14.5,26.0,100,0.01, ,,-99.99,VWS V12.07,2013-02-17 01:43:00,
2013-02-16 20:48:00,36.4,36.4,29.76,North,2,12.7,26.0,100,0.01, ,,-99.99,VWS V12.07,2013-02-17 01:48:00,
2013-02-16 20:53:00,36.1,36.1,29.77,WNW,295,16.6,26.0,100,0.01, ,,-99.99,VWS V12.07,2013-02-17 01:53:00,
2013-02-16 20:58:00,36.1,36.1,29.77,NNW,339,18.0,22.2,100,0.01, ,,-99.99,VWS V12.07,2013-02-17 01:58:00,
2013-02-16 21:03:00,35.9,35.9,29.77,NNW,330,22.2,23.8,100,0.01, ,,-99.99,VWS V12.07,2013-02-17 02:03:00,
2013-02-16 21:08:00,36.3,36.3,29.78,NNW,346,12.9,26.0,100,0.01, ,,-99.99,VWS V12.07,2013-02-17 02:08:00,
2013-02-16 21:13:00,36.1,36.1,29.79,NW,323,17.0,26.0,100,0.01, ,,-99.99,VWS V12.07,2013-02-17 02:13:00,
2013-02-16 21:18:00,36.5,36.5,29.79,NNW,327,18.2,22.2,100,0.00, ,,-99.99,VWS V12.07,2013-02-17 02:18:00,
2013-02-16 21:23:00,36.2,36.2,29.79,NW,308,8.9,22.2,100,0.00, ,,-99.99,VWS V12.07,2013-02-17 02:23:00,
2013-02-16 21:28:00,35.4,35.4,29.80,NW,305,16.5,22.6,100,0.00, ,,-99.99,VWS V12.07,2013-02-17 02:28:00,
2013-02-16 21:33:00,35.4,35.4,29.81,NW,312,12.4,23.9,100,0.00, ,,-99.99,VWS V12.07,2013-02-17 02:33:00,
2013-02-16 21:38:00,35.3,35.3,29.81,NW,315,15.2,22.6,100,0.00, ,,-99.99,VWS V12.07,2013-02-17 02:38:00,
2013-02-16 21:43:00,35.3,35.3,29.81,NW,315,17.8,22.6,100,0.00, ,,-99.99,VWS V12.07,2013-02-17 02:43:00,
2013-02-16 21:48:00,35.6,35.6,29.81,WNW,298,14.4,22.6,100,0.00, ,,-99.99,VWS V12.07,2013-02-17 02:48:00,
2013-02-16 21:53:00,36.0,36.0,29.82,NW,318,13.4,22.6,100,0.00, ,,-99.99,VWS V12.07,2013-02-17 02:53:00,
2013-02-16 21:58:00,35.3,35.3,29.82,WNW,296,19.1,20.0,100,0.00, ,,-99.99,VWS V12.07,2013-02-17 02:58:00,
2013-02-16 22:03:00,35.5,35.5,29.82,NW,319,9.8,20.0,100,0.00, ,,-99.99,VWS V12.07,2013-02-17 03:03:00,
2013-02-16 22:08:00,36.0,36.0,29.82,NW,323,11.6,20.0,100,0.00, ,,-99.99,VWS V12.07,2013-02-17 03:08:00,
2013-02-16 22:13:00,35.4,35.4,29.82,NW,305,12.8,20.0,100,0.00, ,,-99.99,VWS V12.07,2013-02-17 03:13:00,
2013-02-16 22:18:00,35.8,35.8,29.82,NW,323,13.9,17.5,100,0.00, ,,-99.99,VWS V12.07,2013-02-17 03:18:00,
2013-02-16 22:23:00,35.7,35.7,29.82,WNW,298,12.2,21.1,100,0.00, ,,-99.99,VWS V12.07,2013-02-17 03:23:00,
2013-02-16 22:28:00,35.6,35.6,29.82,NW,322,15.9,21.1,100,0.00, ,,-99.99,VWS V12.07,2013-02-17 03:28:00,
2013-02-16 22:33:00,35.9,35.9,29.82,NW,322,9.6,23.7,100,0.00, ,,-99.99,VWS V12.07,2013-02-17 03:33:00,
2013-02-16 22:38:00,35.8,35.8,29.82,NNW,334,4.9,14.8,100,0.00, ,,-99.99,VWS V12.07,2013-02-17 03:38:00,
2013-02-16 22:43:00,36.4,36.4,29.82,NW,310,16.6,18.2,100,0.00, ,,-99.99,VWS V12.07,2013-02-17 03:43:00,
2013-02-16 22:48:00,35.8,35.8,29.82,NW,310,11.2,21.3,100,0.00, ,,-99.99,VWS V12.07,2013-02-17 03:48:00,
2013-02-16 22:53:00,35.3,35.3,29.82,WNW,301,18.5,21.3,100,0.00, ,,-99.99,VWS V12.07,2013-02-17 03:53:00,
2013-02-16 22:58:00,35.6,35.6,29.82,WNW,299,13.4,18.3,100,0.00, ,,-99.99,VWS V12.07,2013-02-17 03:58:00,
2013-02-16 23:03:00,35.4,35.4,29.83,WNW,302,14.2,19.1,100,0.00, ,,-99.99,VWS V12.07,2013-02-17 04:03:00,
2013-02-16 23:08:00,35.3,35.3,29.83,NW,309,14.2,20.4,100,0.00, ,,-99.99,VWS V12.07,2013-02-17 04:08:00,
2013-02-16 23:13:00,35.3,35.3,29.83,WNW,292,9.9,20.8,100,0.00, ,,-99.99,VWS V12.07,2013-02-17 04:13:00,
2013-02-16 23:18:00,35.5,35.5,29.83,WNW,301,9.9,16.0,100,0.00, ,,-99.99,VWS V12.07,2013-02-17 04:18:00,
2013-02-16 23:23:00,35.3,35.3,29.83,NW,326,15.9,20.0,100,0.00, ,,-99.99,VWS V12.07,2013-02-17 04:23:00,
2013-02-16 23:28:00,35.7,35.7,29.83,NW,305,14.2,20.0,100,0.00, ,,-99.99,VWS V12.07,2013-02-17 04:28:00,
2013-02-16 23:33:00,35.5,35.5,29.82,NW,318,12.3,20.0,100,0.00, ,,-99.99,VWS V12.07,2013-02-17 04:33:00,
2013-02-16 23:38:00,36.0,36.0,29.83,NNW,329,16.8,20.1,100,0.00, ,,-99.99,VWS V12.07,2013-02-17 04:38:00,
2013-02-16 23:43:00,35.7,35.7,29.84,NW,315,12.1,20.1,100,0.00, ,,-99.99,VWS V12.07,2013-02-17 04:43:00,
2013-02-16 23:48:00,35.7,35.7,29.84,WNW,296,18.0,20.1,100,0.00, ,,-99.99,VWS V12.07,2013-02-17 04:48:00,
2013-02-16 23:53:00,35.2,35.2,29.84,NW,313,14.4,24.5,100,0.00, ,,-99.99,VWS V12.07,2013-02-17 04:53:00,
2013-02-16 23:58:00,35.4,35.4,29.84,NW,320,12.6,18.5,100,0.00, ,,-99.99,VWS V12.07,2013-02-17 04:58:00,